sensor_id;sensor_type;location;lat;lon;timestamp;P1;durP1;ratioP1;P2;durP2;ratioP2
15913;SDS011;8055;51.930;8.840;2023-06-14T00:02:10;4.43;;;2.63;;
15913;SDS011;8055;51.930;8.840;2023-06-14T00:04:36;4.55;;;3.10;;
15913;SDS011;8055;51.930;8.840;2023-06-14T00:07:03;6.20;;;2.80;;
15913;SDS011;8055;51.930;8.840;2023-06-14T00:09:29;4.65;;;2.42;;
15913;SDS011;8055;51.930;8.840;2023-06-14T00:11:55;6.68;;;2.80;;
15913;SDS011;8055;51.930;8.840;2023-06-14T00:14:20;5.22;;;2.80;;
15913;SDS011;8055;51.930;8.840;2023-06-14T00:16:46;6.40;;;2.75;;
15913;SDS011;8055;51.930;8.840;2023-06-14T00:19:11;3.78;;;2.55;;
15913;SDS011;8055;51.930;8.840;2023-06-14T00:21:37;4.45;;;2.83;;
15913;SDS011;8055;51.930;8.840;2023-06-14T00:24:03;8.68;;;2.90;;
15913;SDS011;8055;51.930;8.840;2023-06-14T00:26:29;5.68;;;3.00;;
15913;SDS011;8055;51.930;8.840;2023-06-14T00:28:54;6.78;;;2.85;;
15913;SDS011;8055;51.930;8.840;2023-06-14T00:31:22;6.28;;;2.78;;
15913;SDS011;8055;51.930;8.840;2023-06-14T00:33:48;3.78;;;2.85;;
15913;SDS011;8055;51.930;8.840;2023-06-14T00:36:13;4.78;;;2.97;;
15913;SDS011;8055;51.930;8.840;2023-06-14T00:38:39;6.28;;;3.05;;
15913;SDS011;8055;51.930;8.840;2023-06-14T00:41:05;3.63;;;2.50;;
15913;SDS011;8055;51.930;8.840;2023-06-14T00:43:30;5.78;;;2.92;;
15913;SDS011;8055;51.930;8.840;2023-06-14T00:45:56;8.35;;;2.88;;
15913;SDS011;8055;51.930;8.840;2023-06-14T00:48:21;3.83;;;2.40;;
15913;SDS011;8055;51.930;8.840;2023-06-14T00:50:48;4.07;;;2.97;;
15913;SDS011;8055;51.930;8.840;2023-06-14T00:53:16;5.82;;;2.88;;
15913;SDS011;8055;51.930;8.840;2023-06-14T00:55:45;6.40;;;3.15;;
15913;SDS011;8055;51.930;8.840;2023-06-14T00:58:11;5.13;;;2.55;;
15913;SDS011;8055;51.930;8.840;2023-06-14T01:00:37;5.43;;;2.70;;
15913;SDS011;8055;51.930;8.840;2023-06-14T01:03:02;4.60;;;2.65;;
15913;SDS011;8055;51.930;8.840;2023-06-14T01:05:29;4.57;;;2.40;;
15913;SDS011;8055;51.930;8.840;2023-06-14T01:13:23;7.05;;;2.85;;
15913;SDS011;8055;51.930;8.840;2023-06-14T01:15:59;4.43;;;2.53;;
15913;SDS011;8055;51.930;8.840;2023-06-14T01:18:27;7.07;;;2.60;;
15913;SDS011;8055;51.930;8.840;2023-06-14T01:20:54;3.92;;;3.10;;
15913;SDS011;8055;51.930;8.840;2023-06-14T01:23:20;7.57;;;2.58;;
15913;SDS011;8055;51.930;8.840;2023-06-14T01:25:47;5.45;;;3.35;;
15913;SDS011;8055;51.930;8.840;2023-06-14T01:28:18;6.30;;;2.85;;
15913;SDS011;8055;51.930;8.840;2023-06-14T01:30:46;6.05;;;3.10;;
15913;SDS011;8055;51.930;8.840;2023-06-14T01:33:17;6.13;;;2.70;;
15913;SDS011;8055;51.930;8.840;2023-06-14T01:35:49;4.63;;;2.97;;
15913;SDS011;8055;51.930;8.840;2023-06-14T01:38:19;4.50;;;2.90;;
15913;SDS011;8055;51.930;8.840;2023-06-14T01:40:46;4.05;;;2.92;;
15913;SDS011;8055;51.930;8.840;2023-06-14T01:43:13;5.55;;;3.03;;
15913;SDS011;8055;51.930;8.840;2023-06-14T01:45:41;5.95;;;2.78;;
15913;SDS011;8055;51.930;8.840;2023-06-14T01:48:07;5.55;;;2.70;;
15913;SDS011;8055;51.930;8.840;2023-06-14T01:50:33;3.75;;;2.70;;
15913;SDS011;8055;51.930;8.840;2023-06-14T01:52:59;6.45;;;3.03;;
15913;SDS011;8055;51.930;8.840;2023-06-14T01:55:25;3.67;;;2.85;;
15913;SDS011;8055;51.930;8.840;2023-06-14T01:57:51;4.75;;;2.88;;
15913;SDS011;8055;51.930;8.840;2023-06-14T02:00:16;8.68;;;3.35;;
15913;SDS011;8055;51.930;8.840;2023-06-14T02:02:43;5.78;;;3.05;;
15913;SDS011;8055;51.930;8.840;2023-06-14T02:05:09;4.07;;;3.03;;
15913;SDS011;8055;51.930;8.840;2023-06-14T02:07:35;5.28;;;3.10;;
15913;SDS011;8055;51.930;8.840;2023-06-14T02:10:00;4.47;;;2.90;;
15913;SDS011;8055;51.930;8.840;2023-06-14T02:12:26;4.07;;;3.03;;
15913;SDS011;8055;51.930;8.840;2023-06-14T02:14:51;6.30;;;2.83;;
15913;SDS011;8055;51.930;8.840;2023-06-14T02:17:16;4.32;;;3.17;;
15913;SDS011;8055;51.930;8.840;2023-06-14T02:19:42;7.00;;;2.95;;
15913;SDS011;8055;51.930;8.840;2023-06-14T02:22:07;7.40;;;2.65;;
15913;SDS011;8055;51.930;8.840;2023-06-14T02:24:33;8.25;;;3.30;;
15913;SDS011;8055;51.930;8.840;2023-06-14T02:26:58;5.82;;;3.45;;
15913;SDS011;8055;51.930;8.840;2023-06-14T02:29:25;7.30;;;3.20;;
15913;SDS011;8055;51.930;8.840;2023-06-14T02:31:50;4.63;;;3.10;;
15913;SDS011;8055;51.930;8.840;2023-06-14T02:34:16;5.47;;;3.22;;
15913;SDS011;8055;51.930;8.840;2023-06-14T02:36:45;5.03;;;3.30;;
15913;SDS011;8055;51.930;8.840;2023-06-14T02:39:10;6.18;;;2.97;;
15913;SDS011;8055;51.930;8.840;2023-06-14T02:41:36;3.67;;;3.22;;
15913;SDS011;8055;51.930;8.840;2023-06-14T02:44:02;5.75;;;3.25;;
15913;SDS011;8055;51.930;8.840;2023-06-14T02:46:27;4.30;;;3.05;;
15913;SDS011;8055;51.930;8.840;2023-06-14T02:48:53;4.10;;;3.00;;
15913;SDS011;8055;51.930;8.840;2023-06-14T02:51:18;6.32;;;3.20;;
15913;SDS011;8055;51.930;8.840;2023-06-14T02:53:44;5.07;;;2.90;;
15913;SDS011;8055;51.930;8.840;2023-06-14T02:56:09;6.95;;;3.10;;
15913;SDS011;8055;51.930;8.840;2023-06-14T02:58:37;5.25;;;2.90;;
15913;SDS011;8055;51.930;8.840;2023-06-14T03:01:03;6.35;;;3.33;;
15913;SDS011;8055;51.930;8.840;2023-06-14T03:03:30;4.78;;;3.30;;
15913;SDS011;8055;51.930;8.840;2023-06-14T03:05:56;4.32;;;3.22;;
15913;SDS011;8055;51.930;8.840;2023-06-14T03:08:22;7.63;;;3.25;;
15913;SDS011;8055;51.930;8.840;2023-06-14T03:10:52;4.90;;;3.10;;
15913;SDS011;8055;51.930;8.840;2023-06-14T03:13:18;4.53;;;2.90;;
15913;SDS011;8055;51.930;8.840;2023-06-14T03:15:46;6.30;;;3.28;;
15913;SDS011;8055;51.930;8.840;2023-06-14T03:18:12;4.40;;;3.25;;
15913;SDS011;8055;51.930;8.840;2023-06-14T03:20:40;5.70;;;3.22;;
15913;SDS011;8055;51.930;8.840;2023-06-14T03:23:06;6.15;;;3.53;;
15913;SDS011;8055;51.930;8.840;2023-06-14T03:25:32;5.18;;;3.17;;
15913;SDS011;8055;51.930;8.840;2023-06-14T03:28:06;3.83;;;3.00;;
15913;SDS011;8055;51.930;8.840;2023-06-14T03:30:32;5.90;;;3.20;;
15913;SDS011;8055;51.930;8.840;2023-06-14T03:32:57;4.57;;;3.60;;
15913;SDS011;8055;51.930;8.840;2023-06-14T03:35:26;9.02;;;3.17;;
15913;SDS011;8055;51.930;8.840;2023-06-14T03:37:53;7.55;;;3.90;;
15913;SDS011;8055;51.930;8.840;2023-06-14T03:40:18;4.10;;;2.78;;
15913;SDS011;8055;51.930;8.840;2023-06-14T03:42:45;4.32;;;3.30;;
15913;SDS011;8055;51.930;8.840;2023-06-14T03:45:10;5.45;;;2.88;;
15913;SDS011;8055;51.930;8.840;2023-06-14T03:47:36;5.32;;;3.53;;
15913;SDS011;8055;51.930;8.840;2023-06-14T03:50:04;5.93;;;3.30;;
15913;SDS011;8055;51.930;8.840;2023-06-14T03:52:31;9.82;;;3.67;;
15913;SDS011;8055;51.930;8.840;2023-06-14T03:54:57;4.40;;;2.97;;
15913;SDS011;8055;51.930;8.840;2023-06-14T03:57:25;3.53;;;3.20;;
15913;SDS011;8055;51.930;8.840;2023-06-14T03:59:51;5.63;;;3.25;;
15913;SDS011;8055;51.930;8.840;2023-06-14T04:02:16;6.05;;;3.50;;
15913;SDS011;8055;51.930;8.840;2023-06-14T04:04:43;5.40;;;3.17;;
15913;SDS011;8055;51.930;8.840;2023-06-14T04:07:13;3.58;;;3.28;;
15913;SDS011;8055;51.930;8.840;2023-06-14T04:09:40;3.83;;;3.15;;
15913;SDS011;8055;51.930;8.840;2023-06-14T04:12:06;6.38;;;3.30;;
15913;SDS011;8055;51.930;8.840;2023-06-14T04:14:34;7.15;;;3.20;;
15913;SDS011;8055;51.930;8.840;2023-06-14T04:17:00;6.00;;;3.05;;
15913;SDS011;8055;51.930;8.840;2023-06-14T04:19:26;6.72;;;3.30;;
15913;SDS011;8055;51.930;8.840;2023-06-14T04:21:51;5.65;;;3.30;;
15913;SDS011;8055;51.930;8.840;2023-06-14T04:24:17;4.10;;;3.00;;
15913;SDS011;8055;51.930;8.840;2023-06-14T04:26:43;4.20;;;2.70;;
15913;SDS011;8055;51.930;8.840;2023-06-14T04:29:13;7.63;;;2.95;;
15913;SDS011;8055;51.930;8.840;2023-06-14T04:31:41;3.10;;;2.72;;
15913;SDS011;8055;51.930;8.840;2023-06-14T04:34:07;5.25;;;2.85;;
15913;SDS011;8055;51.930;8.840;2023-06-14T04:36:34;3.85;;;2.55;;
15913;SDS011;8055;51.930;8.840;2023-06-14T04:39:02;4.90;;;2.70;;
15913;SDS011;8055;51.930;8.840;2023-06-14T04:41:29;4.90;;;2.72;;
15913;SDS011;8055;51.930;8.840;2023-06-14T04:43:55;4.25;;;2.60;;
15913;SDS011;8055;51.930;8.840;2023-06-14T04:46:24;5.43;;;2.63;;
15913;SDS011;8055;51.930;8.840;2023-06-14T04:48:49;7.78;;;2.42;;
15913;SDS011;8055;51.930;8.840;2023-06-14T04:51:15;3.38;;;2.50;;
15913;SDS011;8055;51.930;8.840;2023-06-14T04:53:41;5.88;;;3.00;;
15913;SDS011;8055;51.930;8.840;2023-06-14T04:56:07;5.82;;;2.80;;
15913;SDS011;8055;51.930;8.840;2023-06-14T04:58:33;5.38;;;2.65;;
15913;SDS011;8055;51.930;8.840;2023-06-14T05:00:59;3.85;;;2.47;;
15913;SDS011;8055;51.930;8.840;2023-06-14T05:03:25;4.47;;;2.35;;
15913;SDS011;8055;51.930;8.840;2023-06-14T05:05:51;5.05;;;2.60;;
15913;SDS011;8055;51.930;8.840;2023-06-14T05:08:18;3.85;;;2.53;;
15913;SDS011;8055;51.930;8.840;2023-06-14T05:10:44;3.47;;;2.50;;
15913;SDS011;8055;51.930;8.840;2023-06-14T05:13:09;3.13;;;2.03;;
15913;SDS011;8055;51.930;8.840;2023-06-14T05:15:35;4.53;;;2.28;;
15913;SDS011;8055;51.930;8.840;2023-06-14T05:18:01;4.28;;;2.20;;
15913;SDS011;8055;51.930;8.840;2023-06-14T05:20:28;4.53;;;2.50;;
15913;SDS011;8055;51.930;8.840;2023-06-14T05:22:54;3.22;;;2.47;;
15913;SDS011;8055;51.930;8.840;2023-06-14T05:25:22;3.58;;;2.40;;
15913;SDS011;8055;51.930;8.840;2023-06-14T05:27:48;4.45;;;2.10;;
15913;SDS011;8055;51.930;8.840;2023-06-14T05:30:15;4.35;;;2.45;;
15913;SDS011;8055;51.930;8.840;2023-06-14T05:32:41;4.80;;;2.40;;
15913;SDS011;8055;51.930;8.840;2023-06-14T05:35:07;5.53;;;2.30;;
15913;SDS011;8055;51.930;8.840;2023-06-14T05:37:32;3.05;;;2.28;;
15913;SDS011;8055;51.930;8.840;2023-06-14T05:39:58;5.35;;;2.42;;
15913;SDS011;8055;51.930;8.840;2023-06-14T05:42:23;2.72;;;2.30;;
15913;SDS011;8055;51.930;8.840;2023-06-14T05:44:49;4.80;;;1.80;;
15913;SDS011;8055;51.930;8.840;2023-06-14T05:47:14;2.53;;;2.03;;
15913;SDS011;8055;51.930;8.840;2023-06-14T05:49:40;3.00;;;1.90;;
15913;SDS011;8055;51.930;8.840;2023-06-14T05:52:06;2.95;;;1.80;;
15913;SDS011;8055;51.930;8.840;2023-06-14T05:54:31;7.53;;;2.33;;
15913;SDS011;8055;51.930;8.840;2023-06-14T05:56:57;1.92;;;1.80;;
15913;SDS011;8055;51.930;8.840;2023-06-14T05:59:27;5.60;;;1.98;;
15913;SDS011;8055;51.930;8.840;2023-06-14T06:01:53;3.65;;;2.03;;
15913;SDS011;8055;51.930;8.840;2023-06-14T06:04:18;3.30;;;1.70;;
15913;SDS011;8055;51.930;8.840;2023-06-14T06:06:45;4.80;;;2.10;;
15913;SDS011;8055;51.930;8.840;2023-06-14T06:09:11;4.47;;;2.05;;
15913;SDS011;8055;51.930;8.840;2023-06-14T06:11:37;8.68;;;2.25;;
15913;SDS011;8055;51.930;8.840;2023-06-14T06:14:02;4.57;;;2.00;;
15913;SDS011;8055;51.930;8.840;2023-06-14T06:16:28;4.43;;;1.65;;
15913;SDS011;8055;51.930;8.840;2023-06-14T06:18:53;2.92;;;1.77;;
15913;SDS011;8055;51.930;8.840;2023-06-14T06:21:19;3.40;;;2.10;;
15913;SDS011;8055;51.930;8.840;2023-06-14T06:23:44;3.10;;;1.73;;
15913;SDS011;8055;51.930;8.840;2023-06-14T06:26:10;3.53;;;1.92;;
15913;SDS011;8055;51.930;8.840;2023-06-14T06:28:35;2.83;;;1.77;;
15913;SDS011;8055;51.930;8.840;2023-06-14T06:31:01;3.00;;;1.75;;
15913;SDS011;8055;51.930;8.840;2023-06-14T06:33:26;3.10;;;1.75;;
15913;SDS011;8055;51.930;8.840;2023-06-14T06:35:51;4.60;;;2.00;;
15913;SDS011;8055;51.930;8.840;2023-06-14T06:38:17;5.05;;;1.92;;
15913;SDS011;8055;51.930;8.840;2023-06-14T06:40:44;2.08;;;1.80;;
15913;SDS011;8055;51.930;8.840;2023-06-14T06:43:10;4.22;;;1.88;;
15913;SDS011;8055;51.930;8.840;2023-06-14T06:45:38;3.90;;;1.90;;
15913;SDS011;8055;51.930;8.840;2023-06-14T06:48:05;4.75;;;2.00;;
15913;SDS011;8055;51.930;8.840;2023-06-14T06:50:30;3.50;;;1.88;;
15913;SDS011;8055;51.930;8.840;2023-06-14T06:52:55;2.90;;;1.58;;
15913;SDS011;8055;51.930;8.840;2023-06-14T06:55:23;3.10;;;1.75;;
15913;SDS011;8055;51.930;8.840;2023-06-14T06:57:48;2.65;;;1.70;;
15913;SDS011;8055;51.930;8.840;2023-06-14T07:00:15;3.35;;;1.83;;
15913;SDS011;8055;51.930;8.840;2023-06-14T07:02:42;4.38;;;1.75;;
15913;SDS011;8055;51.930;8.840;2023-06-14T07:05:08;2.13;;;1.77;;
15913;SDS011;8055;51.930;8.840;2023-06-14T07:07:34;2.35;;;1.55;;
15913;SDS011;8055;51.930;8.840;2023-06-14T07:10:00;1.67;;;1.40;;
15913;SDS011;8055;51.930;8.840;2023-06-14T07:12:28;1.98;;;1.40;;
15913;SDS011;8055;51.930;8.840;2023-06-14T07:14:55;2.55;;;1.70;;
15913;SDS011;8055;51.930;8.840;2023-06-14T07:17:20;3.33;;;1.60;;
15913;SDS011;8055;51.930;8.840;2023-06-14T07:19:46;3.28;;;1.45;;
15913;SDS011;8055;51.930;8.840;2023-06-14T07:22:12;1.65;;;1.50;;
15913;SDS011;8055;51.930;8.840;2023-06-14T07:24:37;2.75;;;1.73;;
15913;SDS011;8055;51.930;8.840;2023-06-14T07:27:03;2.42;;;1.50;;
15913;SDS011;8055;51.930;8.840;2023-06-14T07:29:29;2.15;;;1.60;;
15913;SDS011;8055;51.930;8.840;2023-06-14T07:31:55;4.88;;;1.52;;
15913;SDS011;8055;51.930;8.840;2023-06-14T07:34:20;3.65;;;1.67;;
15913;SDS011;8055;51.930;8.840;2023-06-14T07:36:46;4.63;;;1.70;;
15913;SDS011;8055;51.930;8.840;2023-06-14T07:39:12;3.70;;;1.50;;
15913;SDS011;8055;51.930;8.840;2023-06-14T07:41:39;5.97;;;1.77;;
15913;SDS011;8055;51.930;8.840;2023-06-14T07:44:05;4.80;;;1.70;;
15913;SDS011;8055;51.930;8.840;2023-06-14T07:46:30;4.57;;;2.20;;
15913;SDS011;8055;51.930;8.840;2023-06-14T07:48:56;5.13;;;1.70;;
15913;SDS011;8055;51.930;8.840;2023-06-14T07:51:22;3.60;;;1.75;;
15913;SDS011;8055;51.930;8.840;2023-06-14T07:53:48;5.18;;;2.28;;
15913;SDS011;8055;51.930;8.840;2023-06-14T07:56:14;4.35;;;2.05;;
15913;SDS011;8055;51.930;8.840;2023-06-14T07:58:40;2.75;;;1.92;;
15913;SDS011;8055;51.930;8.840;2023-06-14T08:01:05;2.97;;;1.92;;
15913;SDS011;8055;51.930;8.840;2023-06-14T08:03:33;3.50;;;1.77;;
15913;SDS011;8055;51.930;8.840;2023-06-14T08:06:00;6.72;;;1.83;;
15913;SDS011;8055;51.930;8.840;2023-06-14T08:08:26;3.47;;;1.73;;
15913;SDS011;8055;51.930;8.840;2023-06-14T08:10:52;3.00;;;2.00;;
15913;SDS011;8055;51.930;8.840;2023-06-14T08:13:17;5.32;;;2.05;;
15913;SDS011;8055;51.930;8.840;2023-06-14T08:15:43;4.07;;;2.00;;
15913;SDS011;8055;51.930;8.840;2023-06-14T08:18:09;2.60;;;1.75;;
15913;SDS011;8055;51.930;8.840;2023-06-14T08:20:35;4.10;;;1.70;;
15913;SDS011;8055;51.930;8.840;2023-06-14T08:23:02;5.05;;;2.00;;
15913;SDS011;8055;51.930;8.840;2023-06-14T08:25:29;3.15;;;1.70;;
15913;SDS011;8055;51.930;8.840;2023-06-14T08:27:55;2.72;;;1.50;;
15913;SDS011;8055;51.930;8.840;2023-06-14T08:30:21;2.50;;;2.03;;
15913;SDS011;8055;51.930;8.840;2023-06-14T08:32:46;5.13;;;1.60;;
15913;SDS011;8055;51.930;8.840;2023-06-14T08:35:12;5.35;;;2.00;;
15913;SDS011;8055;51.930;8.840;2023-06-14T08:37:39;4.25;;;1.98;;
15913;SDS011;8055;51.930;8.840;2023-06-14T08:40:20;4.63;;;1.83;;
15913;SDS011;8055;51.930;8.840;2023-06-14T08:42:48;2.42;;;1.70;;
15913;SDS011;8055;51.930;8.840;2023-06-14T08:45:16;2.97;;;1.95;;
15913;SDS011;8055;51.930;8.840;2023-06-14T08:47:43;2.70;;;1.90;;
15913;SDS011;8055;51.930;8.840;2023-06-14T08:50:09;3.17;;;1.80;;
15913;SDS011;8055;51.930;8.840;2023-06-14T08:52:36;2.40;;;1.80;;
15913;SDS011;8055;51.930;8.840;2023-06-14T08:57:41;2.70;;;2.00;;
15913;SDS011;8055;51.930;8.840;2023-06-14T09:00:07;3.67;;;2.00;;
15913;SDS011;8055;51.930;8.840;2023-06-14T09:02:40;3.53;;;2.10;;
15913;SDS011;8055;51.930;8.840;2023-06-14T09:05:09;5.63;;;2.22;;
15913;SDS011;8055;51.930;8.840;2023-06-14T09:07:37;2.92;;;2.00;;
15913;SDS011;8055;51.930;8.840;2023-06-14T09:10:12;2.55;;;2.10;;
15913;SDS011;8055;51.930;8.840;2023-06-14T09:12:39;6.20;;;2.70;;
15913;SDS011;8055;51.930;8.840;2023-06-14T09:15:05;2.83;;;1.92;;
15913;SDS011;8055;51.930;8.840;2023-06-14T09:17:34;2.67;;;2.40;;
15913;SDS011;8055;51.930;8.840;2023-06-14T09:20:01;5.22;;;2.20;;
15913;SDS011;8055;51.930;8.840;2023-06-14T09:22:43;4.07;;;2.10;;
15913;SDS011;8055;51.930;8.840;2023-06-14T09:25:09;3.85;;;2.20;;
15913;SDS011;8055;51.930;8.840;2023-06-14T09:27:34;3.85;;;2.17;;
15913;SDS011;8055;51.930;8.840;2023-06-14T09:30:01;4.10;;;2.50;;
15913;SDS011;8055;51.930;8.840;2023-06-14T09:32:28;3.53;;;2.10;;
15913;SDS011;8055;51.930;8.840;2023-06-14T09:34:53;2.78;;;2.28;;
15913;SDS011;8055;51.930;8.840;2023-06-14T09:37:29;4.13;;;2.15;;
15913;SDS011;8055;51.930;8.840;2023-06-14T09:39:56;2.38;;;2.00;;
15913;SDS011;8055;51.930;8.840;2023-06-14T09:42:22;3.75;;;2.03;;
15913;SDS011;8055;51.930;8.840;2023-06-14T09:44:51;3.22;;;2.30;;
15913;SDS011;8055;51.930;8.840;2023-06-14T09:47:19;2.78;;;2.25;;
15913;SDS011;8055;51.930;8.840;2023-06-14T09:49:45;3.17;;;2.05;;
15913;SDS011;8055;51.930;8.840;2023-06-14T09:52:13;2.47;;;2.15;;
15913;SDS011;8055;51.930;8.840;2023-06-14T09:54:43;6.28;;;2.28;;
15913;SDS011;8055;51.930;8.840;2023-06-14T09:57:12;2.85;;;2.55;;
15913;SDS011;8055;51.930;8.840;2023-06-14T09:59:43;2.58;;;2.38;;
15913;SDS011;8055;51.930;8.840;2023-06-14T10:02:34;4.32;;;2.20;;
15913;SDS011;8055;51.930;8.840;2023-06-14T10:05:07;4.25;;;2.28;;
15913;SDS011;8055;51.930;8.840;2023-06-14T10:07:39;4.32;;;2.10;;
15913;SDS011;8055;51.930;8.840;2023-06-14T10:10:07;2.85;;;2.30;;
15913;SDS011;8055;51.930;8.840;2023-06-14T10:12:33;2.47;;;1.90;;
15913;SDS011;8055;51.930;8.840;2023-06-14T10:14:59;2.25;;;1.90;;
15913;SDS011;8055;51.930;8.840;2023-06-14T10:17:27;3.70;;;2.20;;
15913;SDS011;8055;51.930;8.840;2023-06-14T10:20:07;3.58;;;2.13;;
15913;SDS011;8055;51.930;8.840;2023-06-14T10:22:43;2.30;;;1.88;;
15913;SDS011;8055;51.930;8.840;2023-06-14T10:25:25;5.97;;;2.00;;
15913;SDS011;8055;51.930;8.840;2023-06-14T10:27:52;2.83;;;1.60;;
15913;SDS011;8055;51.930;8.840;2023-06-14T10:30:18;4.35;;;1.90;;
15913;SDS011;8055;51.930;8.840;2023-06-14T10:33:07;2.88;;;1.92;;
15913;SDS011;8055;51.930;8.840;2023-06-14T10:35:33;2.72;;;1.80;;
15913;SDS011;8055;51.930;8.840;2023-06-14T10:38:11;2.63;;;2.13;;
15913;SDS011;8055;51.930;8.840;2023-06-14T10:40:38;4.05;;;1.98;;
15913;SDS011;8055;51.930;8.840;2023-06-14T10:43:38;1.90;;;1.67;;
15913;SDS011;8055;51.930;8.840;2023-06-14T10:48:46;3.13;;;1.75;;
15913;SDS011;8055;51.930;8.840;2023-06-14T10:51:18;5.57;;;1.60;;
15913;SDS011;8055;51.930;8.840;2023-06-14T10:53:48;2.08;;;1.70;;
15913;SDS011;8055;51.930;8.840;2023-06-14T10:56:30;3.97;;;1.75;;
15913;SDS011;8055;51.930;8.840;2023-06-14T10:58:57;2.92;;;2.00;;
15913;SDS011;8055;51.930;8.840;2023-06-14T11:01:36;2.58;;;1.90;;
15913;SDS011;8055;51.930;8.840;2023-06-14T11:04:07;2.33;;;1.77;;
15913;SDS011;8055;51.930;8.840;2023-06-14T11:12:47;13.50;;;2.13;;
15913;SDS011;8055;51.930;8.840;2023-06-14T11:15:14;4.15;;;1.65;;
15913;SDS011;8055;51.930;8.840;2023-06-14T11:17:39;4.00;;;1.48;;
15913;SDS011;8055;51.930;8.840;2023-06-14T11:20:16;4.78;;;1.80;;
15913;SDS011;8055;51.930;8.840;2023-06-14T11:22:42;1.98;;;1.60;;
15913;SDS011;8055;51.930;8.840;2023-06-14T11:25:09;4.28;;;1.70;;
15913;SDS011;8055;51.930;8.840;2023-06-14T11:27:35;4.40;;;1.55;;
15913;SDS011;8055;51.930;8.840;2023-06-14T11:30:00;4.10;;;1.63;;
15913;SDS011;8055;51.930;8.840;2023-06-14T11:32:26;5.07;;;1.65;;
15913;SDS011;8055;51.930;8.840;2023-06-14T11:34:51;3.10;;;2.08;;
15913;SDS011;8055;51.930;8.840;2023-06-14T11:37:17;3.90;;;1.73;;
15913;SDS011;8055;51.930;8.840;2023-06-14T11:39:43;2.17;;;1.70;;
15913;SDS011;8055;51.930;8.840;2023-06-14T11:42:13;3.60;;;1.70;;
15913;SDS011;8055;51.930;8.840;2023-06-14T11:44:40;4.47;;;1.80;;
15913;SDS011;8055;51.930;8.840;2023-06-14T11:47:05;1.90;;;1.60;;
15913;SDS011;8055;51.930;8.840;2023-06-14T11:49:35;3.53;;;1.55;;
15913;SDS011;8055;51.930;8.840;2023-06-14T11:52:01;2.10;;;1.67;;
15913;SDS011;8055;51.930;8.840;2023-06-14T11:54:27;2.25;;;1.67;;
15913;SDS011;8055;51.930;8.840;2023-06-14T11:56:52;1.95;;;1.60;;
15913;SDS011;8055;51.930;8.840;2023-06-14T11:59:19;4.03;;;1.70;;
15913;SDS011;8055;51.930;8.840;2023-06-14T12:01:45;2.33;;;1.48;;
15913;SDS011;8055;51.930;8.840;2023-06-14T12:04:12;2.95;;;1.60;;
15913;SDS011;8055;51.930;8.840;2023-06-14T12:06:38;3.72;;;1.90;;
15913;SDS011;8055;51.930;8.840;2023-06-14T12:09:05;3.65;;;1.90;;
15913;SDS011;8055;51.930;8.840;2023-06-14T12:11:33;4.28;;;1.80;;
15913;SDS011;8055;51.930;8.840;2023-06-14T12:14:00;6.13;;;1.85;;
15913;SDS011;8055;51.930;8.840;2023-06-14T12:16:30;2.05;;;1.80;;
15913;SDS011;8055;51.930;8.840;2023-06-14T12:19:00;2.13;;;1.73;;
15913;SDS011;8055;51.930;8.840;2023-06-14T12:21:27;4.65;;;1.50;;
15913;SDS011;8055;51.930;8.840;2023-06-14T12:23:54;2.60;;;1.90;;
15913;SDS011;8055;51.930;8.840;2023-06-14T12:26:19;2.00;;;1.80;;
15913;SDS011;8055;51.930;8.840;2023-06-14T12:28:47;2.10;;;1.90;;
15913;SDS011;8055;51.930;8.840;2023-06-14T12:31:13;3.40;;;1.80;;
15913;SDS011;8055;51.930;8.840;2023-06-14T12:33:40;4.28;;;1.67;;
15913;SDS011;8055;51.930;8.840;2023-06-14T12:36:06;3.05;;;1.80;;
15913;SDS011;8055;51.930;8.840;2023-06-14T12:38:33;3.65;;;1.70;;
15913;SDS011;8055;51.930;8.840;2023-06-14T12:40:58;1.60;;;1.50;;
15913;SDS011;8055;51.930;8.840;2023-06-14T12:43:24;1.73;;;1.48;;
15913;SDS011;8055;51.930;8.840;2023-06-14T12:45:50;3.67;;;1.58;;
15913;SDS011;8055;51.930;8.840;2023-06-14T12:48:15;1.85;;;1.52;;
15913;SDS011;8055;51.930;8.840;2023-06-14T12:50:41;3.40;;;1.50;;
15913;SDS011;8055;51.930;8.840;2023-06-14T12:53:07;4.13;;;1.38;;
15913;SDS011;8055;51.930;8.840;2023-06-14T12:55:33;2.55;;;1.42;;
15913;SDS011;8055;51.930;8.840;2023-06-14T12:57:59;2.60;;;1.33;;
15913;SDS011;8055;51.930;8.840;2023-06-14T13:00:24;4.57;;;1.48;;
15913;SDS011;8055;51.930;8.840;2023-06-14T13:02:55;3.08;;;1.40;;
15913;SDS011;8055;51.930;8.840;2023-06-14T13:05:20;4.28;;;1.50;;
15913;SDS011;8055;51.930;8.840;2023-06-14T13:07:46;3.15;;;1.60;;
15913;SDS011;8055;51.930;8.840;2023-06-14T13:10:11;2.25;;;1.42;;
15913;SDS011;8055;51.930;8.840;2023-06-14T13:12:37;5.00;;;1.50;;
15913;SDS011;8055;51.930;8.840;2023-06-14T13:15:02;2.58;;;1.27;;
15913;SDS011;8055;51.930;8.840;2023-06-14T13:17:28;2.70;;;1.42;;
15913;SDS011;8055;51.930;8.840;2023-06-14T13:19:54;3.63;;;1.40;;
15913;SDS011;8055;51.930;8.840;2023-06-14T13:22:19;2.05;;;1.30;;
15913;SDS011;8055;51.930;8.840;2023-06-14T13:24:45;1.52;;;1.20;;
15913;SDS011;8055;51.930;8.840;2023-06-14T13:27:11;3.05;;;1.60;;
15913;SDS011;8055;51.930;8.840;2023-06-14T13:29:39;2.17;;;1.60;;
15913;SDS011;8055;51.930;8.840;2023-06-14T13:32:05;3.00;;;1.50;;
15913;SDS011;8055;51.930;8.840;2023-06-14T13:34:31;3.10;;;1.20;;
15913;SDS011;8055;51.930;8.840;2023-06-14T13:36:56;3.95;;;1.67;;
15913;SDS011;8055;51.930;8.840;2023-06-14T13:39:23;3.67;;;1.27;;
15913;SDS011;8055;51.930;8.840;2023-06-14T13:41:49;5.45;;;1.35;;
15913;SDS011;8055;51.930;8.840;2023-06-14T13:44:14;4.20;;;1.60;;
15913;SDS011;8055;51.930;8.840;2023-06-14T13:46:43;2.78;;;1.40;;
15913;SDS011;8055;51.930;8.840;2023-06-14T13:49:09;1.60;;;1.50;;
15913;SDS011;8055;51.930;8.840;2023-06-14T13:51:35;3.78;;;1.73;;
15913;SDS011;8055;51.930;8.840;2023-06-14T13:54:00;2.60;;;1.40;;
15913;SDS011;8055;51.930;8.840;2023-06-14T13:56:26;3.47;;;1.60;;
15913;SDS011;8055;51.930;8.840;2023-06-14T13:58:52;6.05;;;1.95;;
15913;SDS011;8055;51.930;8.840;2023-06-14T14:01:17;5.32;;;1.77;;
15913;SDS011;8055;51.930;8.840;2023-06-14T14:03:49;3.05;;;1.80;;
15913;SDS011;8055;51.930;8.840;2023-06-14T14:06:15;5.03;;;1.77;;
15913;SDS011;8055;51.930;8.840;2023-06-14T14:08:41;2.63;;;1.38;;
15913;SDS011;8055;51.930;8.840;2023-06-14T14:11:07;4.30;;;1.67;;
15913;SDS011;8055;51.930;8.840;2023-06-14T14:13:34;5.03;;;1.67;;
15913;SDS011;8055;51.930;8.840;2023-06-14T14:16:01;4.32;;;1.95;;
15913;SDS011;8055;51.930;8.840;2023-06-14T14:18:27;5.15;;;1.65;;
15913;SDS011;8055;51.930;8.840;2023-06-14T14:20:53;2.85;;;1.80;;
15913;SDS011;8055;51.930;8.840;2023-06-14T14:23:18;2.65;;;2.05;;
15913;SDS011;8055;51.930;8.840;2023-06-14T14:25:45;7.43;;;2.30;;
15913;SDS011;8055;51.930;8.840;2023-06-14T14:28:11;6.63;;;2.88;;
15913;SDS011;8055;51.930;8.840;2023-06-14T14:30:37;3.97;;;2.38;;
15913;SDS011;8055;51.930;8.840;2023-06-14T14:33:04;5.50;;;2.42;;
15913;SDS011;8055;51.930;8.840;2023-06-14T14:35:30;3.60;;;2.00;;
15913;SDS011;8055;51.930;8.840;2023-06-14T14:37:56;2.63;;;1.92;;
15913;SDS011;8055;51.930;8.840;2023-06-14T14:40:22;3.17;;;2.33;;
15913;SDS011;8055;51.930;8.840;2023-06-14T14:42:47;7.28;;;2.70;;
15913;SDS011;8055;51.930;8.840;2023-06-14T14:45:12;4.60;;;2.00;;
15913;SDS011;8055;51.930;8.840;2023-06-14T14:47:38;5.20;;;2.22;;
15913;SDS011;8055;51.930;8.840;2023-06-14T14:50:04;5.13;;;2.40;;
15913;SDS011;8055;51.930;8.840;2023-06-14T14:52:33;2.38;;;2.00;;
15913;SDS011;8055;51.930;8.840;2023-06-14T14:54:59;3.22;;;1.90;;
15913;SDS011;8055;51.930;8.840;2023-06-14T14:57:26;6.70;;;2.20;;
15913;SDS011;8055;51.930;8.840;2023-06-14T14:59:52;4.80;;;2.42;;
15913;SDS011;8055;51.930;8.840;2023-06-14T15:02:17;4.20;;;2.55;;
15913;SDS011;8055;51.930;8.840;2023-06-14T15:04:43;11.10;;;2.70;;
15913;SDS011;8055;51.930;8.840;2023-06-14T15:07:09;5.82;;;2.75;;
15913;SDS011;8055;51.930;8.840;2023-06-14T15:09:35;7.53;;;2.90;;
15913;SDS011;8055;51.930;8.840;2023-06-14T15:12:00;3.90;;;2.70;;
15913;SDS011;8055;51.930;8.840;2023-06-14T15:14:26;4.03;;;3.10;;
15913;SDS011;8055;51.930;8.840;2023-06-14T15:16:51;8.20;;;2.67;;